Time;durP1;ratioP1;P1;durP2;ratioP2;P2;SDS_P1;SDS_P2;PMS_P1;PMS_P2;Temp;Humidity;BMP_temperature;BMP_pressure;BME280_temperature;BME280_humidity;BME280_pressure;Samples;Min_cycle;Max_cycle;Signal;HPM_P1;HPM_P2
2023/09/19 00:00:01;;;;;;;2.25;2.10;;;;;;;;;;5022615;28;20228;-88
2023/09/19 00:02:29;;;;;;;3.33;2.25;;;;;;;;;;5010856;28;20237;-86
2023/09/19 00:04:54;;;;;;;2.47;2.20;;;;;;;;;;5012301;28;20223;-87
2023/09/19 00:07:23;;;;;;;2.78;2.28;;;;;;;;;;5005965;28;20226;-86
2023/09/19 00:09:48;;;;;;;3.38;2.40;;;;;;;;;;5022518;28;20223;-87
2023/09/19 00:12:16;;;;;;;3.58;2.28;;;;;;;;;;5026596;28;20686;-87
2023/09/19 00:14:46;;;;;;;3.83;2.47;;;;;;;;;;5011662;28;20215;-86
2023/09/19 00:17:11;;;;;;;2.65;2.40;;;;;;;;;;5028456;28;20226;-89
2023/09/19 00:19:42;;;;;;;4.00;2.40;;;;;;;;;;5039729;28;20226;-87
2023/09/19 00:22:08;;;;;;;2.72;2.45;;;;;;;;;;5015025;28;20219;-86
2023/09/19 00:24:36;;;;;;;2.63;2.42;;;;;;;;;;5028358;28;20219;-88
2023/09/19 00:27:05;;;;;;;2.85;2.65;;;;;;;;;;5015885;28;20218;-87
2023/09/19 00:29:33;;;;;;;2.72;2.53;;;;;;;;;;5025524;28;20223;-88
2023/09/19 00:31:59;;;;;;;3.28;2.53;;;;;;;;;;5006170;28;20230;-90
2023/09/19 00:34:24;;;;;;;4.13;2.72;;;;;;;;;;5016395;28;20218;-86
2023/09/19 00:36:55;;;;;;;2.60;2.40;;;;;;;;;;5013839;28;20248;-88
2023/09/19 00:39:25;;;;;;;8.95;2.85;;;;;;;;;;5020698;28;20226;-88
2023/09/19 00:41:51;;;;;;;2.85;2.60;;;;;;;;;;5005961;28;20720;-85
2023/09/19 00:44:17;;;;;;;2.65;2.45;;;;;;;;;;5006829;28;20233;-88
2023/09/19 00:46:43;;;;;;;2.40;2.25;;;;;;;;;;5013450;28;20233;-86
2023/09/19 00:49:09;;;;;;;3.72;2.72;;;;;;;;;;5004162;28;20293;-86
2023/09/19 00:51:42;;;;;;;2.75;2.55;;;;;;;;;;5011134;28;20231;-89
2023/09/19 00:54:13;;;;;;;2.83;2.60;;;;;;;;;;5007208;28;20211;-89
2023/09/19 00:56:40;;;;;;;3.13;2.60;;;;;;;;;;5011845;28;20220;-89
2023/09/19 00:59:06;;;;;;;3.22;2.72;;;;;;;;;;5014345;28;20223;-87
2023/09/19 01:01:34;;;;;;;3.45;2.95;;;;;;;;;;5016117;28;20226;-87
2023/09/19 01:04:02;;;;;;;4.03;2.90;;;;;;;;;;4966393;28;1153767;-85
2023/09/19 01:06:30;;;;;;;3.30;3.00;;;;;;;;;;4999667;28;20481;-86
2023/09/19 01:09:10;;;;;;;4.57;3.03;;;;;;;;;;5008422;28;20226;-84
2023/09/19 01:12:17;;;;;;;3.22;2.92;;;;;;;;;;5025024;28;20226;-85
2023/09/19 01:15:25;;;;;;;7.18;3.67;;;;;;;;;;5044397;28;20265;-86
2023/09/19 01:18:33;;;;;;;4.20;3.58;;;;;;;;;;5016209;28;20230;-89
2023/09/19 01:22:00;;;;;;;3.80;3.42;;;;;;;;;;4934487;29;20250;-88
2023/09/19 01:25:21;;;;;;;4.22;3.83;;;;;;;;;;4887554;29;20232;-87
2023/09/19 01:31:35;;;;;;;8.38;3.88;;;;;;;;;;4971486;28;20261;-90
2023/09/19 01:35:13;;;;;;;6.00;4.63;;;;;;;;;;5033627;28;20729;-87
2023/09/19 01:37:54;;;;;;;4.28;3.88;;;;;;;;;;5038497;28;20216;-87
2023/09/19 01:40:42;;;;;;;3.90;3.55;;;;;;;;;;5003325;28;20299;-88
2023/09/19 01:43:58;;;;;;;5.95;4.30;;;;;;;;;;5024451;28;20243;-87
2023/09/19 01:47:01;;;;;;;4.68;3.88;;;;;;;;;;4984700;28;20266;-87
2023/09/19 01:49:57;;;;;;;5.13;4.10;;;;;;;;;;4998520;28;20262;-85
2023/09/19 01:53:04;;;;;;;5.07;3.80;;;;;;;;;;5016023;28;20307;-89
2023/09/19 01:56:13;;;;;;;4.72;3.90;;;;;;;;;;5002939;28;20223;-87
2023/09/19 01:58:50;;;;;;;5.45;4.25;;;;;;;;;;4999537;28;20278;-86
2023/09/19 02:01:21;;;;;;;4.35;3.95;;;;;;;;;;4974416;28;20222;-87
2023/09/19 02:03:53;;;;;;;8.85;4.22;;;;;;;;;;5008784;28;20763;-91
2023/09/19 02:06:53;;;;;;;6.47;3.83;;;;;;;;;;5010811;28;20238;-88
2023/09/19 02:09:21;;;;;;;4.53;3.60;;;;;;;;;;5044865;28;20207;-88
2023/09/19 02:12:13;;;;;;;5.75;3.97;;;;;;;;;;5009440;28;20222;-86
2023/09/19 02:14:38;;;;;;;6.22;3.45;;;;;;;;;;5002195;28;20230;-87
2023/09/19 02:17:16;;;;;;;3.90;3.25;;;;;;;;;;5004653;28;20224;-88
2023/09/19 02:19:58;;;;;;;6.60;3.85;;;;;;;;;;4992679;28;20219;-87
2023/09/19 02:22:41;;;;;;;3.92;3.40;;;;;;;;;;5013139;28;20298;-88
2023/09/19 02:25:35;;;;;;;7.22;3.72;;;;;;;;;;5007924;28;20215;-87
2023/09/19 02:28:19;;;;;;;5.18;3.42;;;;;;;;;;5040455;28;20298;-89
2023/09/19 02:31:29;;;;;;;4.75;3.33;;;;;;;;;;4975335;28;20228;-86
2023/09/19 02:34:05;;;;;;;8.73;3.75;;;;;;;;;;4970274;28;20345;-84
2023/09/19 02:36:58;;;;;;;4.80;3.70;;;;;;;;;;4959677;28;20218;-87
2023/09/19 02:39:27;;;;;;;5.70;3.47;;;;;;;;;;4966431;28;20241;-87
2023/09/19 02:42:04;;;;;;;6.35;3.72;;;;;;;;;;4947137;28;20213;-87
2023/09/19 02:45:03;;;;;;;4.40;3.67;;;;;;;;;;4935062;28;20355;-86
2023/09/19 02:48:24;;;;;;;10.02;3.88;;;;;;;;;;4962636;28;20876;-88
2023/09/19 02:51:58;;;;;;;6.13;3.13;;;;;;;;;;4945321;28;20224;-88
2023/09/19 02:55:22;;;;;;;4.93;3.25;;;;;;;;;;4969299;28;20226;-85
2023/09/19 02:57:56;;;;;;;5.82;3.53;;;;;;;;;;4946070;28;20330;-85
2023/09/19 03:00:29;;;;;;;5.85;2.97;;;;;;;;;;4995918;28;20681;-88
2023/09/19 03:03:19;;;;;;;4.65;2.78;;;;;;;;;;4972745;28;20229;-85
2023/09/19 03:06:23;;;;;;;3.83;2.03;;;;;;;;;;5033394;28;20276;-83
2023/09/19 03:09:00;;;;;;;3.90;1.95;;;;;;;;;;5051384;28;20281;-83
2023/09/19 03:15:18;;;;;;;5.78;2.40;;;;;;;;;;5042497;28;20312;-84
2023/09/19 03:18:23;;;;;;;5.28;1.85;;;;;;;;;;4998490;28;20218;-86
2023/09/19 03:21:01;;;;;;;4.18;2.28;;;;;;;;;;5025447;28;20227;-83
2023/09/19 03:24:17;;;;;;;8.13;2.10;;;;;;;;;;5003473;28;20241;-84
2023/09/19 03:26:46;;;;;;;4.22;2.38;;;;;;;;;;5056879;28;20250;-86
2023/09/19 03:32:59;;;;;;;3.53;2.03;;;;;;;;;;5054555;28;20226;-85
2023/09/19 03:35:27;;;;;;;3.28;1.83;;;;;;;;;;5008588;28;20238;-86
2023/09/19 03:37:55;;;;;;;4.83;2.10;;;;;;;;;;5008135;28;20628;-89
2023/09/19 03:40:25;;;;;;;3.85;2.05;;;;;;;;;;5017016;28;20241;-78
2023/09/19 03:42:51;;;;;;;3.30;2.10;;;;;;;;;;5007850;28;20219;-78
2023/09/19 03:45:18;;;;;;;4.10;1.80;;;;;;;;;;5026998;28;20278;-77
2023/09/19 03:47:49;;;;;;;3.70;1.73;;;;;;;;;;5011695;28;20220;-77
2023/09/19 03:50:17;;;;;;;6.55;1.88;;;;;;;;;;5027560;28;20246;-78
2023/09/19 03:52:45;;;;;;;5.80;1.92;;;;;;;;;;5028570;28;20215;-77
2023/09/19 03:55:11;;;;;;;3.80;1.70;;;;;;;;;;5021701;28;20661;-79
2023/09/19 03:57:38;;;;;;;2.30;1.80;;;;;;;;;;5023419;28;20257;-80
2023/09/19 04:03:57;;;;;;;4.75;2.17;;;;;;;;;;5058653;28;20308;-78
2023/09/19 04:06:27;;;;;;;4.35;1.70;;;;;;;;;;5005471;28;20618;-79
2023/09/19 04:08:57;;;;;;;3.22;1.80;;;;;;;;;;5030594;28;20222;-79
2023/09/19 04:11:23;;;;;;;7.72;1.63;;;;;;;;;;5020806;28;20342;-77
2023/09/19 04:13:48;;;;;;;3.78;2.03;;;;;;;;;;5028233;28;20364;-76
2023/09/19 04:16:17;;;;;;;3.67;1.98;;;;;;;;;;5054790;28;20576;-79
2023/09/19 04:18:43;;;;;;;3.30;1.92;;;;;;;;;;5006588;28;20710;-77
2023/09/19 04:21:11;;;;;;;7.15;2.47;;;;;;;;;;5005569;28;20614;-79
2023/09/19 04:23:42;;;;;;;5.32;2.00;;;;;;;;;;5022761;28;20238;-77
2023/09/19 04:26:08;;;;;;;5.15;2.58;;;;;;;;;;5003226;28;20647;-76
2023/09/19 04:28:34;;;;;;;2.70;2.00;;;;;;;;;;5006609;28;20246;-76
2023/09/19 04:31:02;;;;;;;9.30;2.10;;;;;;;;;;5020252;28;20242;-77
2023/09/19 04:33:28;;;;;;;6.65;2.75;;;;;;;;;;5049536;28;20602;-76
2023/09/19 04:35:53;;;;;;;5.33;2.40;;;;;;;;;;5021310;28;20249;-77
2023/09/19 04:38:21;;;;;;;5.72;2.42;;;;;;;;;;5027871;28;20225;-75
2023/09/19 04:40:49;;;;;;;7.40;2.72;;;;;;;;;;5015377;28;20219;-75
2023/09/19 04:43:15;;;;;;;8.82;3.30;;;;;;;;;;5022284;28;20268;-80
2023/09/19 04:45:46;;;;;;;5.97;2.95;;;;;;;;;;5023205;28;20243;-79
2023/09/19 04:48:14;;;;;;;7.90;2.67;;;;;;;;;;5034188;28;20307;-79
2023/09/19 04:50:42;;;;;;;6.07;3.03;;;;;;;;;;5030784;28;20219;-78
2023/09/19 04:53:08;;;;;;;5.82;2.70;;;;;;;;;;5014269;28;20210;-78
2023/09/19 04:55:33;;;;;;;5.35;2.75;;;;;;;;;;5033796;28;20226;-80
2023/09/19 04:57:59;;;;;;;6.67;2.67;;;;;;;;;;5031143;28;20227;-77
2023/09/19 05:00:27;;;;;;;5.13;2.60;;;;;;;;;;5008767;28;20235;-79
2023/09/19 05:02:56;;;;;;;10.02;2.88;;;;;;;;;;5015231;28;20286;-78
2023/09/19 05:05:26;;;;;;;11.13;3.08;;;;;;;;;;5024348;28;20215;-78
2023/09/19 05:07:55;;;;;;;10.00;2.93;;;;;;;;;;5019295;28;20219;-79
2023/09/19 05:10:23;;;;;;;7.83;2.77;;;;;;;;;;5007295;28;20238;-78
2023/09/19 05:12:56;;;;;;;5.78;2.53;;;;;;;;;;5012544;28;20239;-76
2023/09/19 05:15:22;;;;;;;6.80;3.00;;;;;;;;;;5043758;28;20219;-80
2023/09/19 05:17:55;;;;;;;12.07;3.00;;;;;;;;;;5023739;28;20899;-80
2023/09/19 05:20:32;;;;;;;8.63;2.70;;;;;;;;;;4996847;28;20247;-79
2023/09/19 05:23:12;;;;;;;5.63;2.83;;;;;;;;;;5018661;28;20331;-81
2023/09/19 05:25:38;;;;;;;8.50;2.72;;;;;;;;;;5029668;28;20219;-79
2023/09/19 05:28:07;;;;;;;4.45;2.60;;;;;;;;;;5048615;28;20216;-78
2023/09/19 05:30:33;;;;;;;6.03;2.65;;;;;;;;;;5030056;28;20228;-81
2023/09/19 05:32:58;;;;;;;8.27;2.97;;;;;;;;;;5031959;28;20629;-79
2023/09/19 05:35:24;;;;;;;4.17;2.63;;;;;;;;;;5012947;28;20268;-80
2023/09/19 05:37:52;;;;;;;5.80;2.75;;;;;;;;;;5007049;28;20235;-80
2023/09/19 05:40:18;;;;;;;5.20;2.40;;;;;;;;;;5040266;28;20242;-78
2023/09/19 05:42:44;;;;;;;10.27;2.75;;;;;;;;;;5024368;28;20211;-83
2023/09/19 05:45:13;;;;;;;9.05;2.80;;;;;;;;;;5012476;28;20223;-78
2023/09/19 05:47:42;;;;;;;7.53;2.70;;;;;;;;;;5016803;28;20230;-80
2023/09/19 05:50:09;;;;;;;5.60;2.67;;;;;;;;;;5026530;28;20289;-79
2023/09/19 05:52:37;;;;;;;5.40;2.60;;;;;;;;;;5039864;28;20281;-80
2023/09/19 05:55:06;;;;;;;9.40;2.70;;;;;;;;;;5025015;28;20219;-78
2023/09/19 05:57:35;;;;;;;6.43;2.77;;;;;;;;;;5030904;28;20226;-78
2023/09/19 06:00:00;;;;;;;6.70;2.50;;;;;;;;;;5042629;28;20276;-77
2023/09/19 06:02:33;;;;;;;9.68;3.13;;;;;;;;;;5057805;28;20251;-77
2023/09/19 06:04:59;;;;;;;9.60;2.50;;;;;;;;;;5023848;28;20215;-78
2023/09/19 06:07:26;;;;;;;13.25;3.00;;;;;;;;;;5010098;28;20219;-81
2023/09/19 06:09:53;;;;;;;6.72;2.67;;;;;;;;;;5042665;28;20226;-78
2023/09/19 06:12:19;;;;;;;8.18;2.85;;;;;;;;;;5063193;28;20220;-79
2023/09/19 06:14:45;;;;;;;5.60;2.40;;;;;;;;;;5014596;28;20223;-81
2023/09/19 06:17:13;;;;;;;12.73;2.90;;;;;;;;;;5041323;28;20288;-80
2023/09/19 06:19:38;;;;;;;8.95;2.78;;;;;;;;;;5019931;28;20249;-80
2023/09/19 06:22:06;;;;;;;8.23;2.80;;;;;;;;;;5013466;28;20227;-79
2023/09/19 06:24:31;;;;;;;9.23;3.17;;;;;;;;;;5032439;28;20219;-82
2023/09/19 06:26:57;;;;;;;12.60;3.05;;;;;;;;;;5028449;28;20242;-80
2023/09/19 06:29:23;;;;;;;5.65;3.03;;;;;;;;;;5038803;28;20241;-78
2023/09/19 06:31:51;;;;;;;8.27;2.88;;;;;;;;;;5010588;28;20231;-80
2023/09/19 06:34:20;;;;;;;7.00;3.30;;;;;;;;;;5055431;28;20257;-79
2023/09/19 06:36:46;;;;;;;5.93;2.83;;;;;;;;;;5047310;28;20778;-80
2023/09/19 06:39:12;;;;;;;10.00;3.00;;;;;;;;;;5026064;28;20223;-79
2023/09/19 06:41:41;;;;;;;7.20;3.13;;;;;;;;;;5029165;28;20231;-78
2023/09/19 06:44:10;;;;;;;9.85;3.78;;;;;;;;;;5012388;28;20306;-79
2023/09/19 06:46:39;;;;;;;8.98;3.72;;;;;;;;;;5032401;28;20252;-81
2023/09/19 06:49:06;;;;;;;8.17;2.63;;;;;;;;;;5044575;28;20235;-80
2023/09/19 06:51:34;;;;;;;8.07;3.28;;;;;;;;;;5035976;28;20220;-80
2023/09/19 06:54:02;;;;;;;6.25;3.05;;;;;;;;;;5011901;28;20210;-80
2023/09/19 06:56:27;;;;;;;11.40;3.58;;;;;;;;;;5011176;28;20923;-80
2023/09/19 06:58:55;;;;;;;8.77;3.20;;;;;;;;;;5026618;28;20223;-81
2023/09/19 07:01:26;;;;;;;7.38;3.03;;;;;;;;;;5009072;28;20243;-81
2023/09/19 07:03:53;;;;;;;7.80;3.10;;;;;;;;;;5043183;28;20238;-81
2023/09/19 07:06:21;;;;;;;8.52;3.00;;;;;;;;;;5042714;28;20239;-80
2023/09/19 07:08:50;;;;;;;11.30;3.03;;;;;;;;;;5040999;28;20233;-79
2023/09/19 07:11:18;;;;;;;8.10;2.97;;;;;;;;;;5046700;28;20234;-79
2023/09/19 07:13:43;;;;;;;7.32;2.97;;;;;;;;;;5043340;28;20223;-80
2023/09/19 07:16:27;;;;;;;15.00;3.50;;;;;;;;;;5028239;28;20779;-79
2023/09/19 07:18:53;;;;;;;6.00;2.40;;;;;;;;;;5020552;28;20226;-81
2023/09/19 07:21:18;;;;;;;7.95;2.90;;;;;;;;;;5029272;28;20257;-78
2023/09/19 07:23:44;;;;;;;8.48;3.35;;;;;;;;;;5011931;28;20226;-82
2023/09/19 07:26:09;;;;;;;8.27;2.95;;;;;;;;;;5013234;28;20211;-79
2023/09/19 07:28:36;;;;;;;6.93;2.67;;;;;;;;;;5044857;28;20223;-79
2023/09/19 07:31:05;;;;;;;5.70;2.25;;;;;;;;;;5010817;28;20635;-79
2023/09/19 07:33:31;;;;;;;6.57;2.63;;;;;;;;;;5030569;28;20595;-80
2023/09/19 07:35:56;;;;;;;7.60;2.45;;;;;;;;;;5026176;28;20283;-82
2023/09/19 07:38:22;;;;;;;5.97;2.47;;;;;;;;;;5008288;28;20283;-81
2023/09/19 07:40:48;;;;;;;5.63;2.42;;;;;;;;;;5016517;28;20224;-82
2023/09/19 07:43:13;;;;;;;6.22;2.60;;;;;;;;;;5029618;28;20210;-77
2023/09/19 07:45:41;;;;;;;4.90;2.38;;;;;;;;;;5008628;28;20744;-79
2023/09/19 07:48:14;;;;;;;6.03;2.25;;;;;;;;;;5022509;28;20212;-79
2023/09/19 07:50:40;;;;;;;6.30;2.72;;;;;;;;;;5022885;28;20224;-81
2023/09/19 07:53:08;;;;;;;7.60;2.35;;;;;;;;;;5028206;28;20222;-80
2023/09/19 07:55:35;;;;;;;8.68;2.30;;;;;;;;;;5013837;28;20215;-79
2023/09/19 07:58:03;;;;;;;3.97;2.08;;;;;;;;;;5013419;28;20542;-81
2023/09/19 08:00:34;;;;;;;7.97;2.63;;;;;;;;;;5022472;28;20239;-81
2023/09/19 08:03:04;;;;;;;4.80;2.35;;;;;;;;;;5008803;28;20219;-81
2023/09/19 08:05:33;;;;;;;4.65;2.20;;;;;;;;;;5031210;28;20750;-80
2023/09/19 08:07:59;;;;;;;10.75;2.72;;;;;;;;;;5024500;28;20219;-80
2023/09/19 08:10:27;;;;;;;9.57;2.70;;;;;;;;;;5039574;28;20236;-81
2023/09/19 08:12:57;;;;;;;7.07;2.38;;;;;;;;;;5023464;28;20218;-79
2023/09/19 08:15:26;;;;;;;7.32;2.35;;;;;;;;;;5013213;28;20311;-79
2023/09/19 08:17:52;;;;;;;10.25;2.63;;;;;;;;;;5045228;28;20321;-80
2023/09/19 08:20:19;;;;;;;5.10;2.17;;;;;;;;;;5026571;28;20231;-79
2023/09/19 08:22:49;;;;;;;6.55;2.28;;;;;;;;;;5002746;28;20229;-80
2023/09/19 08:25:18;;;;;;;6.32;2.40;;;;;;;;;;5030863;28;20219;-80
2023/09/19 08:27:48;;;;;;;4.35;2.05;;;;;;;;;;5014397;28;20849;-79
2023/09/19 08:30:18;;;;;;;4.20;2.03;;;;;;;;;;5060837;28;20229;-79
2023/09/19 08:32:46;;;;;;;3.85;1.98;;;;;;;;;;5051296;28;20219;-81
2023/09/19 08:35:11;;;;;;;5.38;2.00;;;;;;;;;;5033920;28;20292;-80
2023/09/19 08:37:41;;;;;;;5.57;2.45;;;;;;;;;;5018257;28;20218;-79
2023/09/19 08:40:09;;;;;;;7.93;2.03;;;;;;;;;;5022315;28;20334;-79
2023/09/19 08:42:54;;;;;;;7.30;2.20;;;;;;;;;;5034924;28;20235;-79
2023/09/19 08:45:28;;;;;;;3.17;1.95;;;;;;;;;;5049279;28;20238;-78
2023/09/19 08:47:53;;;;;;;4.93;2.03;;;;;;;;;;5024411;28;20451;-81
2023/09/19 08:50:23;;;;;;;7.07;2.47;;;;;;;;;;5059859;28;20230;-80
2023/09/19 08:52:49;;;;;;;5.38;1.95;;;;;;;;;;5044933;28;20219;-79
2023/09/19 08:55:20;;;;;;;5.35;2.05;;;;;;;;;;5027083;28;20203;-78
2023/09/19 08:57:48;;;;;;;5.22;2.10;;;;;;;;;;5022583;28;20223;-79
2023/09/19 09:00:22;;;;;;;3.45;1.98;;;;;;;;;;5020692;28;20964;-78
2023/09/19 09:02:50;;;;;;;3.92;2.20;;;;;;;;;;5010790;28;20242;-81
2023/09/19 09:05:16;;;;;;;3.60;1.90;;;;;;;;;;5011640;28;20732;-79
2023/09/19 09:07:41;;;;;;;6.53;2.30;;;;;;;;;;5013506;28;20226;-79
2023/09/19 09:10:07;;;;;;;4.93;1.80;;;;;;;;;;4993956;28;20208;-78
2023/09/19 09:12:34;;;;;;;5.93;2.30;;;;;;;;;;5041291;28;20276;-82
2023/09/19 09:15:00;;;;;;;3.78;2.00;;;;;;;;;;5025030;28;20684;-78
2023/09/19 09:17:26;;;;;;;5.20;2.00;;;;;;;;;;5042985;28;20215;-80
2023/09/19 09:19:58;;;;;;;4.13;1.83;;;;;;;;;;5015425;28;20233;-81
2023/09/19 09:22:24;;;;;;;6.43;1.80;;;;;;;;;;5015474;28;20227;-79
2023/09/19 09:25:01;;;;;;;4.35;2.15;;;;;;;;;;5023919;28;20211;-78
2023/09/19 09:27:26;;;;;;;6.88;2.30;;;;;;;;;;5020546;28;20230;-78
2023/09/19 09:29:57;;;;;;;4.07;1.83;;;;;;;;;;5028787;28;20227;-80
2023/09/19 09:32:24;;;;;;;5.80;1.98;;;;;;;;;;5027190;28;20231;-81
2023/09/19 09:34:54;;;;;;;5.88;1.83;;;;;;;;;;5009927;28;20970;-81
2023/09/19 09:37:22;;;;;;;5.32;1.85;;;;;;;;;;5045817;28;20210;-78
2023/09/19 09:39:58;;;;;;;4.35;2.30;;;;;;;;;;5044414;28;20306;-81
2023/09/19 09:42:35;;;;;;;6.43;2.10;;;;;;;;;;5045424;28;20231;-79
2023/09/19 09:45:17;;;;;;;4.43;2.08;;;;;;;;;;5065914;28;20222;-80
2023/09/19 09:47:54;;;;;;;4.53;1.90;;;;;;;;;;5063273;28;20310;-79
2023/09/19 09:50:29;;;;;;;5.10;2.05;;;;;;;;;;5026226;28;20227;-81
2023/09/19 09:53:07;;;;;;;5.65;1.80;;;;;;;;;;5040015;28;20278;-78
2023/09/19 09:56:09;;;;;;;6.25;1.80;;;;;;;;;;5018767;28;20223;-79
2023/09/19 09:58:36;;;;;;;4.57;2.10;;;;;;;;;;5034796;28;20231;-79
2023/09/19 10:01:08;;;;;;;6.25;2.35;;;;;;;;;;5013080;28;20978;-79
2023/09/19 10:03:39;;;;;;;4.57;1.90;;;;;;;;;;5018352;28;20221;-78
2023/09/19 10:06:25;;;;;;;6.43;2.03;;;;;;;;;;5023686;28;20228;-82
2023/09/19 10:09:20;;;;;;;9.30;2.20;;;;;;;;;;5017248;28;20250;-79
2023/09/19 10:11:51;;;;;;;6.70;1.95;;;;;;;;;;5028575;28;20281;-81
2023/09/19 10:14:16;;;;;;;7.10;1.65;;;;;;;;;;5015913;28;20215;-81
2023/09/19 10:16:48;;;;;;;4.53;1.88;;;;;;;;;;5014633;28;20237;-80
2023/09/19 10:19:22;;;;;;;4.57;1.85;;;;;;;;;;5013236;28;20218;-79
2023/09/19 10:21:51;;;;;;;3.80;1.73;;;;;;;;;;5027565;28;20230;-78
2023/09/19 10:24:17;;;;;;;3.53;1.85;;;;;;;;;;5029608;28;20225;-79
2023/09/19 10:26:43;;;;;;;4.30;1.95;;;;;;;;;;5019260;28;20250;-81
2023/09/19 10:29:11;;;;;;;6.35;1.77;;;;;;;;;;5030931;28;20216;-80
2023/09/19 10:31:36;;;;;;;5.43;1.75;;;;;;;;;;5030760;28;20227;-78
2023/09/19 10:34:05;;;;;;;2.50;1.45;;;;;;;;;;5017433;28;20225;-77
2023/09/19 10:36:33;;;;;;;3.50;1.75;;;;;;;;;;5020848;28;20215;-79
2023/09/19 10:39:02;;;;;;;2.78;1.70;;;;;;;;;;5048044;28;20230;-79
2023/09/19 10:41:28;;;;;;;8.48;1.83;;;;;;;;;;5019834;28;20300;-79
2023/09/19 10:43:54;;;;;;;3.92;2.15;;;;;;;;;;5017559;28;20223;-77
2023/09/19 10:46:20;;;;;;;4.00;2.05;;;;;;;;;;5012056;28;20223;-77
2023/09/19 10:48:48;;;;;;;4.40;1.90;;;;;;;;;;5030699;28;20242;-79
2023/09/19 10:51:24;;;;;;;4.70;1.88;;;;;;;;;;5020659;28;20207;-78
2023/09/19 10:54:11;;;;;;;5.63;2.00;;;;;;;;;;5026527;28;20218;-79
2023/09/19 10:56:37;;;;;;;3.95;1.88;;;;;;;;;;5027122;28;20306;-78
2023/09/19 10:59:10;;;;;;;6.75;1.77;;;;;;;;;;5011130;28;20211;-78
2023/09/19 11:01:52;;;;;;;4.35;1.95;;;;;;;;;;5021479;28;20329;-78
2023/09/19 11:04:35;;;;;;;6.85;2.17;;;;;;;;;;5012806;28;20229;-78
2023/09/19 11:07:10;;;;;;;4.88;1.85;;;;;;;;;;5000966;28;20215;-78
2023/09/19 11:09:46;;;;;;;3.65;1.90;;;;;;;;;;5041533;28;20223;-79
2023/09/19 11:12:15;;;;;;;3.67;2.00;;;;;;;;;;5042187;28;20218;-79
2023/09/19 11:14:44;;;;;;;4.25;1.98;;;;;;;;;;5031255;28;20290;-79
2023/09/19 11:17:15;;;;;;;3.97;2.05;;;;;;;;;;5040338;28;20227;-78
2023/09/19 11:22:58;;;;;;;5.05;2.13;;;;;;;;;;5032079;28;20226;-78
2023/09/19 11:25:30;;;;;;;4.47;1.63;;;;;;;;;;5044894;28;20222;-78
2023/09/19 11:30:37;;;;;;;5.10;2.03;;;;;;;;;;5055681;28;20226;-79
2023/09/19 11:33:28;;;;;;;8.98;2.05;;;;;;;;;;5023796;28;20247;-78
2023/09/19 11:36:14;;;;;;;5.20;1.83;;;;;;;;;;5027013;28;20229;-78
2023/09/19 11:38:44;;;;;;;4.22;1.98;;;;;;;;;;5026225;28;20280;-78
2023/09/19 11:41:20;;;;;;;5.70;2.20;;;;;;;;;;5039058;28;20228;-81
2023/09/19 11:43:46;;;;;;;5.97;2.20;;;;;;;;;;5041965;28;20727;-79
2023/09/19 11:46:26;;;;;;;9.05;2.80;;;;;;;;;;5020258;28;20296;-80
2023/09/19 11:48:54;;;;;;;3.40;2.13;;;;;;;;;;5012578;28;20229;-78
2023/09/19 11:51:23;;;;;;;5.10;2.35;;;;;;;;;;5000906;28;20231;-79
2023/09/19 11:53:53;;;;;;;5.82;2.33;;;;;;;;;;5021491;28;20305;-77
2023/09/19 11:56:23;;;;;;;5.03;2.00;;;;;;;;;;5021627;28;20243;-79
2023/09/19 11:58:53;;;;;;;9.77;2.28;;;;;;;;;;5016845;28;20226;-80
2023/09/19 12:01:29;;;;;;;7.20;2.38;;;;;;;;;;5010836;28;20235;-78
2023/09/19 12:03:57;;;;;;;8.02;2.35;;;;;;;;;;5027729;28;20238;-78
2023/09/19 12:06:26;;;;;;;5.32;2.17;;;;;;;;;;5042004;28;20235;-79
2023/09/19 12:08:54;;;;;;;3.80;1.80;;;;;;;;;;5025302;28;20227;-78
2023/09/19 12:11:20;;;;;;;6.10;2.03;;;;;;;;;;5030472;28;20308;-79
2023/09/19 12:13:56;;;;;;;3.97;1.90;;;;;;;;;;5030997;28;20230;-80
2023/09/19 12:16:22;;;;;;;5.57;2.00;;;;;;;;;;5010500;28;20734;-80
2023/09/19 12:18:50;;;;;;;5.28;2.25;;;;;;;;;;5005795;28;20212;-79
2023/09/19 12:21:31;;;;;;;5.53;2.03;;;;;;;;;;5021847;28;20251;-79
2023/09/19 12:24:13;;;;;;;4.85;1.90;;;;;;;;;;5036739;28;20284;-79
2023/09/19 12:26:43;;;;;;;6.53;2.08;;;;;;;;;;5039172;28;20646;-78
2023/09/19 12:29:21;;;;;;;6.47;2.03;;;;;;;;;;5040891;28;20238;-79
2023/09/19 12:31:59;;;;;;;6.90;2.05;;;;;;;;;;5041496;28;20241;-80
2023/09/19 12:34:28;;;;;;;4.13;2.20;;;;;;;;;;5021278;28;20230;-79
2023/09/19 12:37:11;;;;;;;5.05;1.92;;;;;;;;;;5010900;28;20231;-80
2023/09/19 12:39:48;;;;;;;7.28;2.13;;;;;;;;;;5057285;28;20953;-78
2023/09/19 12:42:15;;;;;;;7.70;2.40;;;;;;;;;;5043028;28;20222;-79
2023/09/19 12:44:47;;;;;;;4.22;1.95;;;;;;;;;;5041154;28;20225;-78
2023/09/19 12:47:19;;;;;;;4.30;2.33;;;;;;;;;;5025118;28;20246;-80
2023/09/19 12:50:14;;;;;;;3.10;1.70;;;;;;;;;;5025605;28;21021;-78
2023/09/19 12:52:42;;;;;;;6.00;1.88;;;;;;;;;;5021608;28;20223;-80
2023/09/19 12:55:10;;;;;;;4.38;2.08;;;;;;;;;;5005392;28;20302;-80
2023/09/19 12:57:36;;;;;;;3.53;2.00;;;;;;;;;;5025421;28;20230;-81
2023/09/19 13:00:02;;;;;;;3.03;1.83;;;;;;;;;;5003346;28;20310;-76
2023/09/19 13:02:32;;;;;;;5.38;2.15;;;;;;;;;;5011897;28;20228;-80
2023/09/19 13:05:00;;;;;;;4.10;2.10;;;;;;;;;;5009368;28;20237;-79
2023/09/19 13:07:43;;;;;;;4.55;2.10;;;;;;;;;;5007456;28;20218;-80
2023/09/19 13:10:10;;;;;;;5.63;2.20;;;;;;;;;;5022534;28;20341;-77
2023/09/19 13:12:38;;;;;;;4.55;1.98;;;;;;;;;;5042698;28;20238;-80
2023/09/19 13:15:20;;;;;;;2.90;1.75;;;;;;;;;;5014424;28;20328;-79
2023/09/19 13:17:52;;;;;;;6.75;2.05;;;;;;;;;;5046196;28;20234;-78
2023/09/19 13:20:32;;;;;;;4.05;2.25;;;;;;;;;;5010448;28;20282;-78
2023/09/19 13:23:06;;;;;;;5.35;2.10;;;;;;;;;;5028262;28;20253;-78
2023/09/19 13:25:32;;;;;;;6.22;2.45;;;;;;;;;;5015340;28;20617;-79
2023/09/19 13:27:59;;;;;;;4.05;2.28;;;;;;;;;;5011304;28;20222;-79
2023/09/19 13:30:26;;;;;;;5.07;2.10;;;;;;;;;;5016998;28;20228;-78
2023/09/19 13:32:52;;;;;;;7.13;2.42;;;;;;;;;;5027803;28;20215;-80
2023/09/19 13:35:20;;;;;;;4.63;2.22;;;;;;;;;;5009221;28;20227;-78
2023/09/19 13:37:48;;;;;;;5.30;2.20;;;;;;;;;;5059873;28;20221;-78
2023/09/19 13:40:14;;;;;;;4.82;2.33;;;;;;;;;;5022649;28;20231;-79
2023/09/19 13:42:41;;;;;;;4.85;2.30;;;;;;;;;;5020914;28;20222;-78
2023/09/19 13:45:07;;;;;;;4.97;2.45;;;;;;;;;;5034868;28;20273;-80
2023/09/19 13:47:37;;;;;;;5.35;2.25;;;;;;;;;;5023330;28;20219;-79
2023/09/19 13:50:04;;;;;;;12.75;2.10;;;;;;;;;;5008507;28;20219;-77
2023/09/19 13:52:38;;;;;;;5.32;2.10;;;;;;;;;;4996015;28;20222;-78
2023/09/19 13:55:05;;;;;;;3.80;2.25;;;;;;;;;;5015512;28;20212;-77
2023/09/19 13:57:31;;;;;;;5.05;2.47;;;;;;;;;;5026092;28;20972;-76
2023/09/19 14:00:01;;;;;;;3.78;2.35;;;;;;;;;;5019569;28;20263;-76
2023/09/19 14:02:26;;;;;;;8.40;2.38;;;;;;;;;;5024665;28;20256;-78
2023/09/19 14:04:55;;;;;;;2.63;1.75;;;;;;;;;;5005138;28;20219;-77
2023/09/19 14:07:25;;;;;;;5.50;2.40;;;;;;;;;;5042405;28;20230;-77
2023/09/19 14:09:53;;;;;;;6.50;2.40;;;;;;;;;;5043493;28;20306;-79
2023/09/19 14:12:18;;;;;;;4.15;2.30;;;;;;;;;;5007059;28;20226;-76
2023/09/19 14:14:45;;;;;;;5.25;2.30;;;;;;;;;;5003871;28;20215;-79
2023/09/19 14:17:10;;;;;;;4.47;2.28;;;;;;;;;;5020685;28;20271;-79
2023/09/19 14:19:36;;;;;;;6.32;2.35;;;;;;;;;;5042271;28;20223;-78
2023/09/19 14:22:07;;;;;;;6.40;2.28;;;;;;;;;;5021855;28;20256;-78
2023/09/19 14:24:33;;;;;;;6.05;2.00;;;;;;;;;;5021695;28;20223;-77
2023/09/19 14:26:59;;;;;;;5.78;2.28;;;;;;;;;;5039938;28;20987;-78
2023/09/19 14:29:25;;;;;;;5.82;2.30;;;;;;;;;;5024196;28;20709;-81
2023/09/19 14:31:51;;;;;;;6.85;2.65;;;;;;;;;;5011316;28;20207;-78
2023/09/19 14:34:20;;;;;;;4.80;2.47;;;;;;;;;;5007009;28;20287;-80
2023/09/19 14:36:45;;;;;;;5.85;2.33;;;;;;;;;;5014714;28;20313;-79
2023/09/19 14:39:11;;;;;;;3.50;2.13;;;;;;;;;;5044706;28;20988;-78
2023/09/19 14:41:37;;;;;;;4.15;2.28;;;;;;;;;;5027990;28;20219;-78
2023/09/19 14:44:03;;;;;;;4.30;2.13;;;;;;;;;;5027030;28;20223;-77
2023/09/19 14:46:29;;;;;;;7.88;2.30;;;;;;;;;;5010777;28;20299;-78
2023/09/19 14:48:57;;;;;;;6.30;2.08;;;;;;;;;;5063505;28;20230;-77
2023/09/19 14:51:31;;;;;;;4.53;2.13;;;;;;;;;;5018196;28;20227;-77
2023/09/19 14:54:01;;;;;;;3.67;2.17;;;;;;;;;;5033444;28;20214;-78
2023/09/19 14:56:28;;;;;;;6.97;2.55;;;;;;;;;;5012342;28;20215;-77
2023/09/19 14:58:56;;;;;;;4.95;1.70;;;;;;;;;;5046855;28;20215;-78
2023/09/19 15:01:22;;;;;;;4.15;2.20;;;;;;;;;;5052253;28;20231;-78
2023/09/19 15:03:50;;;;;;;6.55;2.65;;;;;;;;;;5039723;28;20314;-76
2023/09/19 15:06:16;;;;;;;5.93;2.45;;;;;;;;;;5015906;28;20219;-77
2023/09/19 15:08:47;;;;;;;4.82;1.95;;;;;;;;;;5033999;28;20219;-78
2023/09/19 15:11:19;;;;;;;3.60;2.05;;;;;;;;;;5026438;28;20282;-79
2023/09/19 15:13:45;;;;;;;3.25;2.10;;;;;;;;;;5062354;28;20280;-77
2023/09/19 15:16:12;;;;;;;6.75;1.90;;;;;;;;;;5032767;28;20282;-79
2023/09/19 15:18:41;;;;;;;3.38;2.28;;;;;;;;;;5017743;28;21023;-79
2023/09/19 15:21:09;;;;;;;3.38;1.85;;;;;;;;;;5030191;28;20265;-77
2023/09/19 15:23:35;;;;;;;4.20;1.88;;;;;;;;;;5034282;28;21019;-79
2023/09/19 15:26:04;;;;;;;3.72;1.98;;;;;;;;;;5029230;28;20219;-77
2023/09/19 15:28:34;;;;;;;4.20;1.88;;;;;;;;;;5028747;28;20226;-76
2023/09/19 15:31:03;;;;;;;6.40;1.95;;;;;;;;;;5022009;28;20242;-76
2023/09/19 15:33:29;;;;;;;3.78;2.10;;;;;;;;;;5045707;28;20282;-78